Time;durP1;ratioP1;P1;durP2;ratioP2;P2;SDS_P1;SDS_P2;PMS_P1;PMS_P2;Temp;Humidity;BMP_temperature;BMP_pressure;BME280_temperature;BME280_humidity;BME280_pressure;Samples;Min_cycle;Max_cycle;Signal;HPM_P1;HPM_P2
2023/04/16 00:01:25;;;;;;;4.88;2.55;;;;;;;;;;6305098;22;20033;-78
2023/04/16 00:03:51;;;;;;;6.05;2.42;;;;;;;;;;6305078;22;20018;-78
2023/04/16 00:06:17;;;;;;;3.80;2.28;;;;;;;;;;6332765;22;20003;-78
2023/04/16 00:08:43;;;;;;;3.78;2.00;;;;;;;;;;6333399;22;20003;-78
2023/04/16 00:11:10;;;;;;;6.05;2.50;;;;;;;;;;6331339;22;20006;-78
2023/04/16 00:13:36;;;;;;;2.63;1.90;;;;;;;;;;6305468;22;20305;-79
2023/04/16 00:16:02;;;;;;;4.95;2.70;;;;;;;;;;6304574;22;20003;-77
2023/04/16 00:18:29;;;;;;;4.30;2.70;;;;;;;;;;6333114;22;20002;-79
2023/04/16 00:20:55;;;;;;;6.07;3.20;;;;;;;;;;6332778;22;20010;-78
2023/04/16 00:23:21;;;;;;;3.58;2.80;;;;;;;;;;6306496;22;20034;-76
2023/04/16 00:25:47;;;;;;;4.75;3.10;;;;;;;;;;6306645;22;20503;-76
2023/04/16 00:28:13;;;;;;;5.75;3.22;;;;;;;;;;6334906;22;20030;-78
2023/04/16 00:30:39;;;;;;;2.85;2.63;;;;;;;;;;6335057;22;20006;-78
2023/04/16 00:33:05;;;;;;;2.55;2.20;;;;;;;;;;6334691;22;20023;-79
2023/04/16 00:35:32;;;;;;;4.00;2.80;;;;;;;;;;6334058;22;20013;-77
2023/04/16 00:37:58;;;;;;;3.13;2.17;;;;;;;;;;6308351;22;20423;-78
2023/04/16 00:40:27;;;;;;;3.33;2.63;;;;;;;;;;6333025;22;20424;-78
2023/04/16 00:42:53;;;;;;;4.55;2.40;;;;;;;;;;6303978;22;20063;-78
2023/04/16 00:45:20;;;;;;;2.28;2.05;;;;;;;;;;6335826;22;20301;-78
2023/04/16 00:47:46;;;;;;;3.33;2.00;;;;;;;;;;6305250;22;20010;-79
2023/04/16 00:50:12;;;;;;;3.28;2.13;;;;;;;;;;6333212;22;20247;-78
2023/04/16 00:52:39;;;;;;;4.50;2.40;;;;;;;;;;6331791;22;19995;-78
2023/04/16 00:55:07;;;;;;;2.30;2.00;;;;;;;;;;6297647;22;20048;-80
2023/04/16 00:57:33;;;;;;;2.22;2.03;;;;;;;;;;6300502;22;20385;-78
2023/04/16 00:59:59;;;;;;;2.28;1.88;;;;;;;;;;6301211;22;20003;-78
2023/04/16 01:02:25;;;;;;;2.45;1.80;;;;;;;;;;6302913;22;20030;-78
2023/04/16 01:04:51;;;;;;;3.55;2.05;;;;;;;;;;6302121;22;20007;-78
2023/04/16 01:07:18;;;;;;;3.70;2.10;;;;;;;;;;6300317;22;20007;-78
2023/04/16 01:09:44;;;;;;;3.10;2.03;;;;;;;;;;6301639;22;20011;-78
2023/04/16 01:12:10;;;;;;;2.15;1.80;;;;;;;;;;6301092;22;20000;-78
2023/04/16 01:14:36;;;;;;;6.75;2.40;;;;;;;;;;6297698;22;20073;-78
2023/04/16 01:17:03;;;;;;;4.70;2.40;;;;;;;;;;6302170;22;20019;-78
2023/04/16 01:19:35;;;;;;;3.25;2.22;;;;;;;;;;6300927;22;20300;-78
2023/04/16 01:22:01;;;;;;;2.30;1.90;;;;;;;;;;6298189;22;20440;-79
2023/04/16 01:24:27;;;;;;;2.00;1.75;;;;;;;;;;6302742;22;20010;-77
2023/04/16 01:26:53;;;;;;;5.88;2.30;;;;;;;;;;6298227;22;20496;-78
2023/04/16 01:29:20;;;;;;;3.70;1.88;;;;;;;;;;6302078;22;20006;-78
2023/04/16 01:31:46;;;;;;;3.58;1.75;;;;;;;;;;6302023;22;20007;-78
2023/04/16 01:34:12;;;;;;;2.03;1.60;;;;;;;;;;6302203;22;20265;-80
2023/04/16 01:36:38;;;;;;;1.88;1.70;;;;;;;;;;6301866;22;20066;-79
2023/04/16 01:39:04;;;;;;;3.25;1.80;;;;;;;;;;6304022;22;20254;-78
2023/04/16 01:41:31;;;;;;;3.28;1.70;;;;;;;;;;6300605;22;20593;-78
2023/04/16 01:43:57;;;;;;;1.60;1.50;;;;;;;;;;6301735;22;20219;-79
2023/04/16 01:46:26;;;;;;;1.63;1.52;;;;;;;;;;6302676;22;20009;-76
2023/04/16 01:48:53;;;;;;;1.98;1.70;;;;;;;;;;6301355;22;20008;-76
2023/04/16 01:51:20;;;;;;;2.05;1.80;;;;;;;;;;6300514;22;21007;-79
2023/04/16 01:53:46;;;;;;;1.50;1.40;;;;;;;;;;6301224;22;20826;-79
2023/04/16 01:56:12;;;;;;;1.70;1.52;;;;;;;;;;6299722;22;20016;-79
2023/04/16 01:58:40;;;;;;;2.97;1.90;;;;;;;;;;6303214;22;20070;-78
2023/04/16 02:01:06;;;;;;;3.10;2.20;;;;;;;;;;6301468;22;20128;-79
2023/04/16 02:03:32;;;;;;;2.10;1.70;;;;;;;;;;6303338;22;20344;-78
2023/04/16 02:05:58;;;;;;;1.50;1.40;;;;;;;;;;6299701;22;20003;-78
2023/04/16 02:08:24;;;;;;;3.42;2.00;;;;;;;;;;6301472;22;20041;-78
2023/04/16 02:10:50;;;;;;;3.17;2.28;;;;;;;;;;6299339;22;20003;-80
2023/04/16 02:13:17;;;;;;;4.78;2.50;;;;;;;;;;6301867;22;20412;-78
2023/04/16 02:15:46;;;;;;;3.50;1.98;;;;;;;;;;6299953;22;20435;-78
2023/04/16 02:18:13;;;;;;;2.53;2.00;;;;;;;;;;6300924;22;20004;-78
2023/04/16 02:20:42;;;;;;;3.13;1.70;;;;;;;;;;6301643;22;20480;-78
2023/04/16 02:23:09;;;;;;;1.95;1.48;;;;;;;;;;6301490;22;20018;-79
2023/04/16 02:25:42;;;;;;;2.45;1.80;;;;;;;;;;6296777;22;20007;-78
2023/04/16 02:28:09;;;;;;;4.40;2.30;;;;;;;;;;6299872;22;20017;-76
2023/04/16 02:30:35;;;;;;;1.70;1.60;;;;;;;;;;6300713;22;20004;-77
2023/04/16 02:33:04;;;;;;;2.97;1.90;;;;;;;;;;6299704;22;20019;-76
2023/04/16 02:35:31;;;;;;;1.50;1.40;;;;;;;;;;6302525;22;20647;-78
2023/04/16 02:37:57;;;;;;;3.75;1.95;;;;;;;;;;6301935;22;20554;-78
2023/04/16 02:40:24;;;;;;;5.72;2.13;;;;;;;;;;6299749;22;20007;-77
2023/04/16 02:42:50;;;;;;;2.60;1.90;;;;;;;;;;6302142;22;20003;-78
2023/04/16 02:45:16;;;;;;;4.30;2.20;;;;;;;;;;6301852;22;20011;-78
2023/04/16 02:47:42;;;;;;;1.90;1.73;;;;;;;;;;6296899;22;20325;-78
2023/04/16 02:50:08;;;;;;;1.75;1.65;;;;;;;;;;6297396;22;20003;-78
2023/04/16 02:52:35;;;;;;;1.85;1.60;;;;;;;;;;6298961;22;20101;-79
2023/04/16 02:55:01;;;;;;;2.70;1.55;;;;;;;;;;6311866;22;20018;-79
2023/04/16 02:57:28;;;;;;;2.63;1.60;;;;;;;;;;6333164;22;20457;-77
2023/04/16 02:59:54;;;;;;;1.77;1.50;;;;;;;;;;6330168;22;20042;-79
2023/04/16 03:02:20;;;;;;;1.63;1.50;;;;;;;;;;6330569;22;20014;-80
2023/04/16 03:04:46;;;;;;;2.05;1.55;;;;;;;;;;6334438;22;20007;-79
2023/04/16 03:07:12;;;;;;;2.15;1.63;;;;;;;;;;6305245;22;20072;-78
2023/04/16 03:09:39;;;;;;;1.40;1.30;;;;;;;;;;6305957;22;20384;-78
2023/04/16 03:12:05;;;;;;;1.00;1.00;;;;;;;;;;6330944;22;20036;-81
2023/04/16 03:14:31;;;;;;;1.40;1.30;;;;;;;;;;6330604;22;20003;-80
2023/04/16 03:16:57;;;;;;;1.40;1.30;;;;;;;;;;6305381;22;20343;-78
2023/04/16 03:19:24;;;;;;;1.40;1.30;;;;;;;;;;6333006;22;20091;-78
2023/04/16 03:21:50;;;;;;;1.38;1.13;;;;;;;;;;6332804;22;20007;-77
2023/04/16 03:24:16;;;;;;;1.25;1.25;;;;;;;;;;6305302;22;20003;-78
2023/04/16 03:26:42;;;;;;;1.10;1.10;;;;;;;;;;6305202;22;20766;-78
2023/04/16 03:29:09;;;;;;;1.33;1.27;;;;;;;;;;6329785;22;20390;-78
2023/04/16 03:31:35;;;;;;;1.17;1.17;;;;;;;;;;6304710;22;20438;-77
2023/04/16 03:34:01;;;;;;;1.33;1.30;;;;;;;;;;6302570;22;20006;-77
2023/04/16 03:36:27;;;;;;;1.30;1.20;;;;;;;;;;6303792;22;20496;-78
2023/04/16 03:38:53;;;;;;;1.20;1.20;;;;;;;;;;6333421;22;20005;-77
2023/04/16 03:41:20;;;;;;;2.30;1.45;;;;;;;;;;6332272;22;20323;-77
2023/04/16 03:43:46;;;;;;;1.20;1.20;;;;;;;;;;6332284;22;20086;-79
2023/04/16 03:46:12;;;;;;;1.23;1.20;;;;;;;;;;6330826;22;20325;-78
2023/04/16 03:48:38;;;;;;;1.40;1.30;;;;;;;;;;6304197;22;20311;-78
2023/04/16 03:51:04;;;;;;;1.40;1.30;;;;;;;;;;6332228;22;20071;-79
2023/04/16 03:53:30;;;;;;;2.00;1.20;;;;;;;;;;6300725;22;20009;-79
2023/04/16 03:55:56;;;;;;;1.27;1.27;;;;;;;;;;6330684;22;20453;-79
2023/04/16 03:58:22;;;;;;;1.75;1.65;;;;;;;;;;6304966;22;20014;-78
2023/04/16 04:00:50;;;;;;;1.48;1.38;;;;;;;;;;6334431;22;20022;-79
2023/04/16 04:03:17;;;;;;;1.35;1.25;;;;;;;;;;6307267;22;20036;-78
2023/04/16 04:05:43;;;;;;;2.20;1.60;;;;;;;;;;6333998;22;19998;-78
2023/04/16 04:08:11;;;;;;;2.03;1.23;;;;;;;;;;6306587;22;20352;-75
2023/04/16 04:10:37;;;;;;;3.13;1.50;;;;;;;;;;6307143;22;20010;-80
2023/04/16 04:13:04;;;;;;;2.92;1.85;;;;;;;;;;6334613;22;20018;-79
2023/04/16 04:15:30;;;;;;;2.30;1.50;;;;;;;;;;6334536;22;20002;-76
2023/04/16 04:17:56;;;;;;;1.70;1.60;;;;;;;;;;6334715;22;19998;-78
2023/04/16 04:20:23;;;;;;;1.50;1.40;;;;;;;;;;6304127;22;20018;-76
2023/04/16 04:22:49;;;;;;;1.33;1.23;;;;;;;;;;6306123;22;20023;-76
2023/04/16 04:25:16;;;;;;;1.55;1.40;;;;;;;;;;6306989;22;20506;-76
2023/04/16 04:27:42;;;;;;;1.70;1.60;;;;;;;;;;6308784;22;20019;-77
2023/04/16 04:30:09;;;;;;;1.85;1.48;;;;;;;;;;6335517;22;20033;-76
2023/04/16 04:32:35;;;;;;;1.80;1.70;;;;;;;;;;6330928;22;20514;-77
2023/04/16 04:35:02;;;;;;;1.50;1.40;;;;;;;;;;6333110;22;20486;-74
2023/04/16 04:37:28;;;;;;;1.40;1.30;;;;;;;;;;6334891;22;20007;-76
2023/04/16 04:39:55;;;;;;;1.50;1.40;;;;;;;;;;6334443;22;20016;-76
2023/04/16 04:42:21;;;;;;;1.50;1.40;;;;;;;;;;6334257;22;20335;-76
2023/04/16 04:44:47;;;;;;;2.33;1.50;;;;;;;;;;6307418;22;20068;-76
2023/04/16 04:47:14;;;;;;;1.60;1.50;;;;;;;;;;6334789;22;20089;-76
2023/04/16 04:49:40;;;;;;;1.95;1.60;;;;;;;;;;6334410;22;20002;-76
2023/04/16 04:52:07;;;;;;;1.75;1.60;;;;;;;;;;6307557;22;20030;-76
2023/04/16 04:54:33;;;;;;;3.05;1.80;;;;;;;;;;6307039;22;20022;-76
2023/04/16 04:57:00;;;;;;;2.90;1.65;;;;;;;;;;6334352;22;19995;-76
2023/04/16 04:59:26;;;;;;;2.47;1.80;;;;;;;;;;6307424;22;20006;-75
2023/04/16 05:01:52;;;;;;;1.73;1.60;;;;;;;;;;6336014;22;20514;-76
2023/04/16 05:04:18;;;;;;;1.75;1.60;;;;;;;;;;6335131;22;20033;-79
2023/04/16 05:06:45;;;;;;;1.60;1.50;;;;;;;;;;6307687;22;20090;-78
2023/04/16 05:09:11;;;;;;;1.70;1.60;;;;;;;;;;6333982;22;20026;-75
2023/04/16 05:11:38;;;;;;;1.73;1.55;;;;;;;;;;6335064;22;20419;-78
2023/04/16 05:14:04;;;;;;;2.30;1.90;;;;;;;;;;6305552;22;20003;-79
2023/04/16 05:16:30;;;;;;;2.63;1.70;;;;;;;;;;6306982;22;20007;-79
2023/04/16 05:18:57;;;;;;;2.10;1.67;;;;;;;;;;6306179;22;20128;-77
2023/04/16 05:21:23;;;;;;;1.83;1.60;;;;;;;;;;6334784;22;20003;-78
2023/04/16 05:23:49;;;;;;;2.13;1.83;;;;;;;;;;6306085;22;20734;-78
2023/04/16 05:26:15;;;;;;;3.47;2.60;;;;;;;;;;6332822;22;20002;-78
2023/04/16 05:28:41;;;;;;;2.03;1.70;;;;;;;;;;6333590;22;20002;-77
2023/04/16 05:31:07;;;;;;;3.05;2.00;;;;;;;;;;6334545;22;20010;-78
2023/04/16 05:33:34;;;;;;;2.53;1.80;;;;;;;;;;6331746;22;20455;-78
2023/04/16 05:36:00;;;;;;;3.20;2.00;;;;;;;;;;6332472;22;20006;-78
2023/04/16 05:38:26;;;;;;;3.72;1.92;;;;;;;;;;6332473;22;19999;-79
2023/04/16 05:40:52;;;;;;;4.70;1.95;;;;;;;;;;6304804;22;20007;-79
2023/04/16 05:43:18;;;;;;;2.25;2.00;;;;;;;;;;6302713;22;20102;-79
2023/04/16 05:45:44;;;;;;;3.20;2.13;;;;;;;;;;6331684;22;20006;-80
2023/04/16 05:48:11;;;;;;;5.85;2.85;;;;;;;;;;6331715;22;20389;-78
2023/04/16 05:50:37;;;;;;;2.80;2.35;;;;;;;;;;6333526;22;20007;-79
2023/04/16 05:53:05;;;;;;;4.03;2.08;;;;;;;;;;6332194;22;19998;-81
2023/04/16 05:55:32;;;;;;;4.25;2.20;;;;;;;;;;6306595;22;20518;-78
2023/04/16 05:57:58;;;;;;;3.35;2.10;;;;;;;;;;6281772;22;20003;-78
2023/04/16 06:00:26;;;;;;;5.85;3.10;;;;;;;;;;6333856;22;20022;-79
2023/04/16 06:02:52;;;;;;;4.82;2.22;;;;;;;;;;6306706;22;20081;-76
2023/04/16 06:05:18;;;;;;;4.03;2.20;;;;;;;;;;6305920;22;20015;-79
2023/04/16 06:07:44;;;;;;;6.38;2.20;;;;;;;;;;6305412;22;20085;-79
2023/04/16 06:10:10;;;;;;;3.55;2.13;;;;;;;;;;6304970;22;20007;-79
2023/04/16 06:12:36;;;;;;;2.50;2.10;;;;;;;;;;6307023;22;20177;-80
2023/04/16 06:15:03;;;;;;;2.83;2.08;;;;;;;;;;6306672;22;20064;-80
2023/04/16 06:17:29;;;;;;;3.88;2.38;;;;;;;;;;6334043;22;20297;-78
2023/04/16 06:19:55;;;;;;;6.65;2.50;;;;;;;;;;6334131;22;20006;-79
2023/04/16 06:22:21;;;;;;;4.18;2.58;;;;;;;;;;6304440;22;20010;-79
2023/04/16 06:24:47;;;;;;;3.35;2.08;;;;;;;;;;6334448;22;20029;-78
2023/04/16 06:27:13;;;;;;;4.13;2.40;;;;;;;;;;6306525;22;20478;-80
2023/04/16 06:29:40;;;;;;;4.63;2.80;;;;;;;;;;6306540;22;20011;-78
2023/04/16 06:32:06;;;;;;;2.95;2.13;;;;;;;;;;6333027;22;20027;-79
2023/04/16 06:34:32;;;;;;;2.70;2.33;;;;;;;;;;6306025;22;20081;-79
2023/04/16 06:36:58;;;;;;;6.25;3.00;;;;;;;;;;6306131;22;20006;-79
2023/04/16 06:39:24;;;;;;;4.95;2.20;;;;;;;;;;6305972;22;20514;-80
2023/04/16 06:41:50;;;;;;;3.08;2.42;;;;;;;;;;6308650;22;20031;-79
2023/04/16 06:44:17;;;;;;;3.75;2.78;;;;;;;;;;6305615;22;20014;-78
2023/04/16 06:46:43;;;;;;;2.58;2.15;;;;;;;;;;6305641;22;20007;-80
2023/04/16 06:49:09;;;;;;;4.53;2.60;;;;;;;;;;6306240;22;20003;-78
2023/04/16 06:51:35;;;;;;;5.40;2.60;;;;;;;;;;6330031;22;20318;-79
2023/04/16 06:54:01;;;;;;;2.70;2.50;;;;;;;;;;6332609;22;20059;-79
2023/04/16 06:56:27;;;;;;;3.80;2.15;;;;;;;;;;6333481;22;20114;-77
2023/04/16 06:58:56;;;;;;;3.75;2.15;;;;;;;;;;6305589;22;20007;-77
2023/04/16 07:01:22;;;;;;;3.17;2.58;;;;;;;;;;6304208;22;20743;-78
2023/04/16 07:03:49;;;;;;;2.90;2.45;;;;;;;;;;6303729;22;20006;-78
2023/04/16 07:06:15;;;;;;;2.78;2.15;;;;;;;;;;6304457;22;20003;-77
2023/04/16 07:08:41;;;;;;;4.40;2.42;;;;;;;;;;6332676;22;20006;-79
2023/04/16 07:11:07;;;;;;;3.15;2.40;;;;;;;;;;6332229;22;20010;-79
2023/04/16 07:13:34;;;;;;;4.88;2.47;;;;;;;;;;6333447;22;20010;-79
2023/04/16 07:16:00;;;;;;;5.70;2.63;;;;;;;;;;6304768;22;19999;-78
2023/04/16 07:18:26;;;;;;;5.05;2.40;;;;;;;;;;6332845;22;20339;-78
2023/04/16 07:20:52;;;;;;;5.95;2.60;;;;;;;;;;6333312;22;20013;-79
2023/04/16 07:23:18;;;;;;;3.13;2.33;;;;;;;;;;6331098;22;20007;-80
2023/04/16 07:25:46;;;;;;;4.40;2.40;;;;;;;;;;6332691;22;20387;-79
2023/04/16 07:28:12;;;;;;;3.72;2.40;;;;;;;;;;6304770;22;20006;-79
2023/04/16 07:30:38;;;;;;;3.05;2.33;;;;;;;;;;6331989;22;20011;-79
2023/04/16 07:33:05;;;;;;;5.82;2.45;;;;;;;;;;6306942;22;20007;-79
2023/04/16 07:35:31;;;;;;;2.70;2.25;;;;;;;;;;6307087;22;20014;-79
2023/04/16 07:37:57;;;;;;;4.05;2.40;;;;;;;;;;6334702;22;20462;-78
2023/04/16 07:40:24;;;;;;;4.80;2.28;;;;;;;;;;6333536;22;20013;-80
2023/04/16 07:42:50;;;;;;;3.50;2.30;;;;;;;;;;6334443;22;20038;-78
2023/04/16 07:45:17;;;;;;;3.17;2.20;;;;;;;;;;6305210;22;20431;-79
2023/04/16 07:47:44;;;;;;;2.90;2.50;;;;;;;;;;6334409;22;20002;-79
2023/04/16 07:50:10;;;;;;;5.88;2.67;;;;;;;;;;6334636;22;19998;-78
2023/04/16 07:52:40;;;;;;;8.73;3.65;;;;;;;;;;6334107;22;20067;-78
2023/04/16 07:55:06;;;;;;;3.90;2.30;;;;;;;;;;6334839;22;20026;-79
2023/04/16 07:57:32;;;;;;;3.13;2.20;;;;;;;;;;6306815;22;20002;-78
2023/04/16 08:00:00;;;;;;;4.60;2.60;;;;;;;;;;6333304;22;20024;-79
2023/04/16 08:02:27;;;;;;;2.80;2.20;;;;;;;;;;6333651;22;20076;-79
2023/04/16 08:04:53;;;;;;;5.90;2.53;;;;;;;;;;6306821;22;20054;-79
2023/04/16 08:07:19;;;;;;;6.03;2.80;;;;;;;;;;6305096;22;20491;-78
2023/04/16 08:09:50;;;;;;;3.35;2.28;;;;;;;;;;6305587;22;20094;-79
2023/04/16 08:12:17;;;;;;;5.68;2.90;;;;;;;;;;6333721;22;20032;-79
2023/04/16 08:14:44;;;;;;;5.50;3.25;;;;;;;;;;6331629;22;20132;-80
2023/04/16 08:17:10;;;;;;;4.60;2.17;;;;;;;;;;6303727;22;20438;-79
2023/04/16 08:19:36;;;;;;;6.65;2.33;;;;;;;;;;6334558;22;20022;-79
2023/04/16 08:22:02;;;;;;;3.75;2.40;;;;;;;;;;6334045;22;20027;-79
2023/04/16 08:24:29;;;;;;;8.98;2.63;;;;;;;;;;6334671;22;20007;-80
2023/04/16 08:26:55;;;;;;;3.95;2.50;;;;;;;;;;6307183;22;20073;-79
2023/04/16 08:29:23;;;;;;;4.20;2.83;;;;;;;;;;6334619;22;20003;-80
2023/04/16 08:31:50;;;;;;;5.50;2.60;;;;;;;;;;6304530;22;20015;-79
2023/04/16 08:34:16;;;;;;;3.47;2.25;;;;;;;;;;6305788;22;20431;-81
2023/04/16 08:36:42;;;;;;;5.80;2.22;;;;;;;;;;6305371;22;20003;-81
2023/04/16 08:39:09;;;;;;;5.30;2.72;;;;;;;;;;6304691;22;20423;-79
2023/04/16 08:41:36;;;;;;;6.32;3.00;;;;;;;;;;6304672;22;20427;-77
2023/04/16 08:44:11;;;;;;;3.35;2.53;;;;;;;;;;6332000;22;20006;-81
2023/04/16 08:46:37;;;;;;;4.03;2.50;;;;;;;;;;6303870;22;20081;-80
2023/04/16 08:49:07;;;;;;;3.42;2.70;;;;;;;;;;6305110;22;20288;-78
2023/04/16 08:51:34;;;;;;;5.97;2.95;;;;;;;;;;6304928;22;20026;-78
2023/04/16 08:54:04;;;;;;;4.75;2.30;;;;;;;;;;6333388;22;20024;-80
2023/04/16 08:56:31;;;;;;;4.95;2.55;;;;;;;;;;6305623;22;20042;-78
2023/04/16 08:58:59;;;;;;;3.85;2.60;;;;;;;;;;6332722;22;19998;-77
2023/04/16 09:01:26;;;;;;;7.40;2.47;;;;;;;;;;6302732;22;20006;-78
2023/04/16 09:03:53;;;;;;;4.95;2.50;;;;;;;;;;6307099;22;20447;-77
2023/04/16 09:06:19;;;;;;;4.07;2.55;;;;;;;;;;6305886;22;20030;-79
2023/04/16 09:08:45;;;;;;;4.68;2.67;;;;;;;;;;6306350;22;20014;-79
2023/04/16 09:11:13;;;;;;;5.18;2.72;;;;;;;;;;6303743;22;20022;-77
2023/04/16 09:13:39;;;;;;;4.85;2.30;;;;;;;;;;6334052;22;20428;-78
2023/04/16 09:16:08;;;;;;;7.65;2.70;;;;;;;;;;6304050;22;20022;-79
2023/04/16 09:18:34;;;;;;;5.97;2.60;;;;;;;;;;6305680;22;20443;-80
2023/04/16 09:21:01;;;;;;;7.70;2.58;;;;;;;;;;6334054;22;20037;-79
2023/04/16 09:23:27;;;;;;;4.22;2.60;;;;;;;;;;6304120;22;20010;-78
2023/04/16 09:25:54;;;;;;;5.63;2.63;;;;;;;;;;6334066;22;20006;-79
2023/04/16 09:28:39;;;;;;;4.45;2.60;;;;;;;;;;6303017;22;20007;-78
2023/04/16 09:31:10;;;;;;;4.70;2.40;;;;;;;;;;6332412;22;20006;-78
2023/04/16 09:33:36;;;;;;;5.30;3.80;;;;;;;;;;6332459;22;20007;-79
2023/04/16 09:36:02;;;;;;;7.03;2.53;;;;;;;;;;6305193;22;19999;-79
2023/04/16 09:38:48;;;;;;;5.07;2.55;;;;;;;;;;6331754;22;20002;-78
2023/04/16 09:41:15;;;;;;;5.75;2.58;;;;;;;;;;6332100;22;20435;-80
2023/04/16 09:43:42;;;;;;;3.78;2.78;;;;;;;;;;6333195;22;20315;-80
2023/04/16 09:46:11;;;;;;;5.13;2.47;;;;;;;;;;6302957;22;20010;-78
2023/04/16 09:48:39;;;;;;;3.90;2.50;;;;;;;;;;6333870;22;20313;-79
2023/04/16 09:51:06;;;;;;;2.83;2.28;;;;;;;;;;6304419;22;20007;-78
2023/04/16 09:53:32;;;;;;;5.82;2.70;;;;;;;;;;6306133;22;20016;-78
2023/04/16 09:56:03;;;;;;;4.40;2.53;;;;;;;;;;6305018;22;20023;-80
2023/04/16 09:58:29;;;;;;;6.00;2.45;;;;;;;;;;6333803;22;19999;-78
2023/04/16 10:00:56;;;;;;;5.32;2.50;;;;;;;;;;6331972;22;20011;-79
2023/04/16 10:03:29;;;;;;;7.93;2.83;;;;;;;;;;6332573;22;20009;-75
2023/04/16 10:05:55;;;;;;;4.28;2.67;;;;;;;;;;6332838;22;20014;-77
2023/04/16 10:08:23;;;;;;;5.63;2.72;;;;;;;;;;6303559;22;20090;-77
2023/04/16 10:10:49;;;;;;;9.45;3.22;;;;;;;;;;6331620;22;19999;-76
2023/04/16 10:13:17;;;;;;;3.85;2.40;;;;;;;;;;6304667;22;20042;-75
2023/04/16 10:15:44;;;;;;;4.25;2.53;;;;;;;;;;6304346;22;20007;-75
2023/04/16 10:18:10;;;;;;;7.03;2.47;;;;;;;;;;6304687;22;20003;-75
2023/04/16 10:20:36;;;;;;;5.18;2.63;;;;;;;;;;6304423;22;20026;-76
2023/04/16 10:23:02;;;;;;;4.80;2.97;;;;;;;;;;6333866;22;19998;-76
2023/04/16 10:25:29;;;;;;;3.25;2.30;;;;;;;;;;6333278;22;20006;-76
2023/04/16 10:27:56;;;;;;;4.53;2.88;;;;;;;;;;6333085;22;20018;-76
2023/04/16 10:30:23;;;;;;;5.00;2.80;;;;;;;;;;6303725;22;20006;-76
2023/04/16 10:32:49;;;;;;;5.57;2.63;;;;;;;;;;6305493;22;20025;-76
2023/04/16 10:35:19;;;;;;;5.32;2.42;;;;;;;;;;6305340;22;20085;-76
2023/04/16 10:37:46;;;;;;;6.60;3.22;;;;;;;;;;6332709;22;20003;-77
2023/04/16 10:40:25;;;;;;;5.25;2.67;;;;;;;;;;6304927;22;20082;-75
2023/04/16 10:42:58;;;;;;;6.35;2.67;;;;;;;;;;6333040;22;20427;-76
2023/04/16 10:45:30;;;;;;;4.47;2.45;;;;;;;;;;6332382;22;20013;-77
2023/04/16 10:47:57;;;;;;;5.68;3.78;;;;;;;;;;6331208;22;20059;-76
2023/04/16 10:50:24;;;;;;;5.97;2.90;;;;;;;;;;6304941;22;20407;-76
2023/04/16 10:53:10;;;;;;;2.88;2.30;;;;;;;;;;6301969;22;20003;-82
2023/04/16 10:55:38;;;;;;;3.30;2.40;;;;;;;;;;6302236;22;20019;-76
2023/04/16 10:58:24;;;;;;;4.93;2.42;;;;;;;;;;6301685;22;20007;-76
2023/04/16 11:00:51;;;;;;;5.50;2.80;;;;;;;;;;6331250;22;20030;-77
2023/04/16 11:03:19;;;;;;;6.43;3.10;;;;;;;;;;6330430;22;20010;-76
2023/04/16 11:05:45;;;;;;;5.47;3.00;;;;;;;;;;6332129;22;20737;-81
2023/04/16 11:08:15;;;;;;;6.22;3.20;;;;;;;;;;6332888;22;20003;-76
2023/04/16 11:10:41;;;;;;;2.50;2.30;;;;;;;;;;6304707;22;19999;-76
2023/04/16 11:13:08;;;;;;;4.75;2.28;;;;;;;;;;6332972;22;20006;-81
2023/04/16 11:15:34;;;;;;;5.55;3.05;;;;;;;;;;6303444;22;19999;-81
2023/04/16 11:18:02;;;;;;;5.97;2.97;;;;;;;;;;6303775;22;20010;-77
2023/04/16 11:20:29;;;;;;;4.22;2.45;;;;;;;;;;6305894;22;20492;-85
2023/04/16 11:22:56;;;;;;;4.00;2.33;;;;;;;;;;6303600;22;20014;-77
2023/04/16 11:25:23;;;;;;;5.97;2.65;;;;;;;;;;6331419;22;20064;-78
2023/04/16 11:27:50;;;;;;;6.30;2.60;;;;;;;;;;6304997;22;20442;-77
2023/04/16 11:30:16;;;;;;;9.05;3.03;;;;;;;;;;6303169;22;20007;-77
2023/04/16 11:32:43;;;;;;;4.97;2.72;;;;;;;;;;6333564;22;19998;-76
2023/04/16 11:35:16;;;;;;;4.60;2.72;;;;;;;;;;6330960;22;19999;-75
2023/04/16 11:37:43;;;;;;;8.20;3.70;;;;;;;;;;6304893;22;20532;-76
2023/04/16 11:40:09;;;;;;;6.88;2.88;;;;;;;;;;6302398;22;20006;-76
2023/04/16 11:42:36;;;;;;;5.07;2.92;;;;;;;;;;6303251;22;20003;-76
2023/04/16 11:45:03;;;;;;;5.15;2.50;;;;;;;;;;6330019;22;20008;-76
2023/04/16 11:47:30;;;;;;;24.67;5.32;;;;;;;;;;6304444;22;20449;-77
2023/04/16 11:49:57;;;;;;;3.72;2.83;;;;;;;;;;6327733;22;20534;-80
2023/04/16 11:52:26;;;;;;;7.93;2.83;;;;;;;;;;6331167;22;20066;-76
2023/04/16 11:54:52;;;;;;;6.72;2.83;;;;;;;;;;6332462;22;20010;-77
2023/04/16 11:57:29;;;;;;;4.07;2.45;;;;;;;;;;6304023;22;20354;-80
2023/04/16 11:59:55;;;;;;;4.15;2.42;;;;;;;;;;6332316;22;20011;-77
2023/04/16 12:02:38;;;;;;;3.65;2.60;;;;;;;;;;6304146;22;20090;-78
2023/04/16 12:05:05;;;;;;;3.80;2.40;;;;;;;;;;6331953;22;20048;-79
2023/04/16 12:07:31;;;;;;;4.50;2.60;;;;;;;;;;6330193;22;20052;-77
2023/04/16 12:10:07;;;;;;;6.35;3.60;;;;;;;;;;6330850;22;20025;-77
2023/04/16 12:12:34;;;;;;;3.80;2.30;;;;;;;;;;6331628;22;20003;-77
2023/04/16 12:15:04;;;;;;;2.83;2.22;;;;;;;;;;6303159;22;20013;-80
2023/04/16 12:17:34;;;;;;;3.50;2.60;;;;;;;;;;6330854;22;20100;-78
2023/04/16 12:20:02;;;;;;;4.55;2.80;;;;;;;;;;6328508;22;20052;-76
2023/04/16 12:22:35;;;;;;;4.20;2.50;;;;;;;;;;6304970;22;20022;-77
2023/04/16 12:25:02;;;;;;;2.97;2.38;;;;;;;;;;6301046;22;20002;-78
2023/04/16 12:28:01;;;;;;;3.60;2.25;;;;;;;;;;6328333;22;20021;-77
2023/04/16 12:30:27;;;;;;;5.00;2.95;;;;;;;;;;6244795;22;20003;-77
2023/04/16 12:33:12;;;;;;;4.82;2.72;;;;;;;;;;6332761;22;20644;-77
2023/04/16 12:35:40;;;;;;;3.13;2.30;;;;;;;;;;6332518;22;20006;-77
2023/04/16 12:38:06;;;;;;;6.35;2.50;;;;;;;;;;6306251;22;20010;-77
2023/04/16 12:40:33;;;;;;;4.75;2.40;;;;;;;;;;6332356;22;20014;-78
2023/04/16 12:42:59;;;;;;;7.07;3.40;;;;;;;;;;6332752;22;20745;-77
2023/04/16 12:45:25;;;;;;;5.70;2.15;;;;;;;;;;6333537;22;20078;-79
2023/04/16 12:47:52;;;;;;;3.38;2.55;;;;;;;;;;6333211;22;20091;-78
2023/04/16 12:50:18;;;;;;;3.80;2.22;;;;;;;;;;6305986;22;20453;-78
2023/04/16 12:52:44;;;;;;;4.30;2.85;;;;;;;;;;6304769;22;20432;-78
2023/04/16 12:55:11;;;;;;;5.28;2.72;;;;;;;;;;6333326;22;20015;-79
2023/04/16 12:57:37;;;;;;;4.75;2.50;;;;;;;;;;6331115;22;20006;-77
2023/04/16 13:00:05;;;;;;;7.03;3.05;;;;;;;;;;6304979;22;20003;-77
2023/04/16 13:02:31;;;;;;;5.32;2.70;;;;;;;;;;6330537;22;20424;-80
2023/04/16 13:04:58;;;;;;;7.65;3.30;;;;;;;;;;6305042;22;20003;-78
2023/04/16 13:07:25;;;;;;;6.93;2.67;;;;;;;;;;6333860;22;20003;-77
2023/04/16 13:09:51;;;;;;;4.68;3.33;;;;;;;;;;6332898;22;20738;-78
2023/04/16 13:12:18;;;;;;;4.10;2.40;;;;;;;;;;6301895;22;20006;-78
2023/04/16 13:14:44;;;;;;;5.20;2.95;;;;;;;;;;6330789;22;19999;-77
2023/04/16 13:17:10;;;;;;;4.28;2.13;;;;;;;;;;6305322;22;20003;-77
2023/04/16 13:19:36;;;;;;;4.18;2.28;;;;;;;;;;6332449;22;20084;-77
2023/04/16 13:22:02;;;;;;;3.63;2.58;;;;;;;;;;6305199;22;20007;-79
2023/04/16 13:24:29;;;;;;;3.60;2.50;;;;;;;;;;6332331;22;20003;-77
2023/04/16 13:26:55;;;;;;;9.77;2.55;;;;;;;;;;6305968;22;20428;-77
2023/04/16 13:29:22;;;;;;;3.20;2.35;;;;;;;;;;6331770;22;20116;-77
2023/04/16 13:31:48;;;;;;;3.00;2.53;;;;;;;;;;6327989;22;20023;-77
2023/04/16 13:34:14;;;;;;;4.22;2.42;;;;;;;;;;6327981;22;19995;-77
2023/04/16 13:36:40;;;;;;;4.40;2.47;;;;;;;;;;6305391;22;20484;-78
2023/04/16 13:39:10;;;;;;;2.75;2.55;;;;;;;;;;6331627;22;20444;-77
2023/04/16 13:41:39;;;;;;;4.97;2.55;;;;;;;;;;6330314;22;20082;-78
2023/04/16 13:44:06;;;;;;;4.57;2.45;;;;;;;;;;6303854;22;20006;-77
2023/04/16 13:46:32;;;;;;;5.28;2.78;;;;;;;;;;6331514;22;20077;-77
2023/04/16 13:48:58;;;;;;;3.10;2.38;;;;;;;;;;6304975;22;20538;-78
2023/04/16 13:51:26;;;;;;;6.38;2.53;;;;;;;;;;6302349;22;20438;-77
2023/04/16 13:53:54;;;;;;;2.92;2.20;;;;;;;;;;6332751;22;19999;-78
2023/04/16 13:56:20;;;;;;;3.00;2.20;;;;;;;;;;6305213;22;20347;-78
2023/04/16 13:58:46;;;;;;;3.05;2.40;;;;;;;;;;6332588;22;19999;-78
2023/04/16 14:01:12;;;;;;;4.45;2.67;;;;;;;;;;6332019;22;20320;-77
2023/04/16 14:03:39;;;;;;;3.90;2.50;;;;;;;;;;6302388;22;20018;-79
2023/04/16 14:06:05;;;;;;;2.97;2.40;;;;;;;;;;6301980;22;20038;-78
2023/04/16 14:08:32;;;;;;;4.80;2.45;;;;;;;;;;6332690;22;20090;-78
2023/04/16 14:10:58;;;;;;;3.60;2.33;;;;;;;;;;6302865;22;20086;-77
2023/04/16 14:13:25;;;;;;;4.95;3.05;;;;;;;;;;6333443;22;20025;-79
2023/04/16 14:15:53;;;;;;;5.00;2.53;;;;;;;;;;6331195;22;20003;-80
2023/04/16 14:18:19;;;;;;;4.28;2.65;;;;;;;;;;6302960;22;20078;-80
2023/04/16 14:20:47;;;;;;;4.50;2.17;;;;;;;;;;6304982;22;20420;-79
2023/04/16 14:23:13;;;;;;;3.75;2.22;;;;;;;;;;6304075;22;20005;-79
2023/04/16 14:25:39;;;;;;;2.85;2.22;;;;;;;;;;6305433;22;20342;-79
2023/04/16 14:28:07;;;;;;;4.25;2.30;;;;;;;;;;6331490;22;20003;-77
2023/04/16 14:30:33;;;;;;;3.85;2.10;;;;;;;;;;6303763;22;20067;-78
2023/04/16 14:33:00;;;;;;;5.47;2.40;;;;;;;;;;6300159;22;20676;-80
2023/04/16 14:35:26;;;;;;;4.45;2.25;;;;;;;;;;6329620;22;19995;-79
2023/04/16 14:37:52;;;;;;;6.90;2.47;;;;;;;;;;6329645;22;20003;-79
2023/04/16 14:40:18;;;;;;;3.95;2.30;;;;;;;;;;6299290;22;20011;-78
2023/04/16 14:42:44;;;;;;;4.43;2.20;;;;;;;;;;6332746;22;20003;-80